sensor_id;sensor_type;location;lat;lon;timestamp;temperature;humidity
58339;DHT22;68636;52.704;6.536;2023-07-13T00:01:48;15.70;99.90
58339;DHT22;68636;52.704;6.536;2023-07-13T00:04:20;15.60;99.90
58339;DHT22;68636;52.704;6.536;2023-07-13T00:06:46;15.60;99.90
58339;DHT22;68636;52.704;6.536;2023-07-13T00:09:16;15.50;99.90
58339;DHT22;68636;52.704;6.536;2023-07-13T00:11:43;15.60;99.90
58339;DHT22;68636;52.704;6.536;2023-07-13T00:14:09;15.50;99.90
58339;DHT22;68636;52.704;6.536;2023-07-13T00:16:37;15.50;99.90
58339;DHT22;68636;52.704;6.536;2023-07-13T00:19:03;15.50;99.90
58339;DHT22;68636;52.704;6.536;2023-07-13T00:21:28;15.50;99.90
58339;DHT22;68636;52.704;6.536;2023-07-13T00:23:54;15.50;99.90
58339;DHT22;68636;52.704;6.536;2023-07-13T00:26:20;15.50;99.90
58339;DHT22;68636;52.704;6.536;2023-07-13T00:28:46;15.50;99.90
58339;DHT22;68636;52.704;6.536;2023-07-13T00:31:12;15.50;99.90
58339;DHT22;68636;52.704;6.536;2023-07-13T00:33:40;15.60;99.90
58339;DHT22;68636;52.704;6.536;2023-07-13T00:36:06;15.60;99.90
58339;DHT22;68636;52.704;6.536;2023-07-13T00:38:32;15.60;99.90
58339;DHT22;68636;52.704;6.536;2023-07-13T00:40:58;15.70;99.90
58339;DHT22;68636;52.704;6.536;2023-07-13T00:43:26;15.70;99.90
58339;DHT22;68636;52.704;6.536;2023-07-13T00:48:21;15.70;99.90
58339;DHT22;68636;52.704;6.536;2023-07-13T00:50:51;15.70;99.90
58339;DHT22;68636;52.704;6.536;2023-07-13T00:53:18;15.80;99.90
58339;DHT22;68636;52.704;6.536;2023-07-13T00:55:44;15.70;99.90
58339;DHT22;68636;52.704;6.536;2023-07-13T00:58:10;15.70;99.90
58339;DHT22;68636;52.704;6.536;2023-07-13T01:00:36;15.70;99.90
58339;DHT22;68636;52.704;6.536;2023-07-13T01:03:04;15.70;99.90
58339;DHT22;68636;52.704;6.536;2023-07-13T01:05:32;15.70;99.90
58339;DHT22;68636;52.704;6.536;2023-07-13T01:07:59;15.70;99.90
58339;DHT22;68636;52.704;6.536;2023-07-13T01:10:26;15.70;99.90
58339;DHT22;68636;52.704;6.536;2023-07-13T01:12:53;15.70;99.90
58339;DHT22;68636;52.704;6.536;2023-07-13T01:15:38;15.60;99.90
58339;DHT22;68636;52.704;6.536;2023-07-13T01:18:07;15.60;99.90
58339;DHT22;68636;52.704;6.536;2023-07-13T01:20:33;15.50;99.90
58339;DHT22;68636;52.704;6.536;2023-07-13T01:23:11;15.50;99.90
58339;DHT22;68636;52.704;6.536;2023-07-13T01:25:38;15.50;99.90
58339;DHT22;68636;52.704;6.536;2023-07-13T01:28:08;15.50;99.90
58339;DHT22;68636;52.704;6.536;2023-07-13T01:30:39;15.60;99.90
58339;DHT22;68636;52.704;6.536;2023-07-13T01:33:08;15.50;99.90
58339;DHT22;68636;52.704;6.536;2023-07-13T01:35:35;15.60;99.90
58339;DHT22;68636;52.704;6.536;2023-07-13T01:38:01;15.60;99.90
58339;DHT22;68636;52.704;6.536;2023-07-13T01:40:28;15.60;99.90
58339;DHT22;68636;52.704;6.536;2023-07-13T01:42:54;15.60;99.90
58339;DHT22;68636;52.704;6.536;2023-07-13T01:45:20;15.70;99.90
58339;DHT22;68636;52.704;6.536;2023-07-13T01:47:46;15.70;99.90
58339;DHT22;68636;52.704;6.536;2023-07-13T01:50:11;15.70;99.90
58339;DHT22;68636;52.704;6.536;2023-07-13T01:52:37;15.70;99.90
58339;DHT22;68636;52.704;6.536;2023-07-13T01:55:03;15.60;99.90
58339;DHT22;68636;52.704;6.536;2023-07-13T01:57:29;15.60;99.90
58339;DHT22;68636;52.704;6.536;2023-07-13T01:59:55;15.50;99.90
58339;DHT22;68636;52.704;6.536;2023-07-13T02:02:20;15.40;99.90
58339;DHT22;68636;52.704;6.536;2023-07-13T02:04:46;15.40;99.90
58339;DHT22;68636;52.704;6.536;2023-07-13T02:07:12;15.30;99.90
58339;DHT22;68636;52.704;6.536;2023-07-13T02:09:37;15.30;99.90
58339;DHT22;68636;52.704;6.536;2023-07-13T02:12:03;15.30;99.90
58339;DHT22;68636;52.704;6.536;2023-07-13T02:14:29;15.20;99.90
58339;DHT22;68636;52.704;6.536;2023-07-13T02:16:55;15.20;99.90
58339;DHT22;68636;52.704;6.536;2023-07-13T02:19:21;15.20;99.90
58339;DHT22;68636;52.704;6.536;2023-07-13T02:21:47;15.10;99.90
58339;DHT22;68636;52.704;6.536;2023-07-13T02:24:14;15.10;99.90
58339;DHT22;68636;52.704;6.536;2023-07-13T02:26:43;15.10;99.90
58339;DHT22;68636;52.704;6.536;2023-07-13T02:29:09;15.10;99.90
58339;DHT22;68636;52.704;6.536;2023-07-13T02:31:35;15.10;99.90
58339;DHT22;68636;52.704;6.536;2023-07-13T02:34:02;15.10;99.90
58339;DHT22;68636;52.704;6.536;2023-07-13T02:36:28;15.10;99.90
58339;DHT22;68636;52.704;6.536;2023-07-13T02:38:54;15.10;99.90
58339;DHT22;68636;52.704;6.536;2023-07-13T02:41:20;15.10;99.90
58339;DHT22;68636;52.704;6.536;2023-07-13T02:43:46;15.20;99.90
58339;DHT22;68636;52.704;6.536;2023-07-13T02:46:12;15.20;99.90
58339;DHT22;68636;52.704;6.536;2023-07-13T02:48:38;15.20;99.90
58339;DHT22;68636;52.704;6.536;2023-07-13T02:51:05;15.20;99.90
58339;DHT22;68636;52.704;6.536;2023-07-13T02:53:30;15.20;99.90
58339;DHT22;68636;52.704;6.536;2023-07-13T02:55:56;15.20;99.90
58339;DHT22;68636;52.704;6.536;2023-07-13T02:58:22;15.20;99.90
58339;DHT22;68636;52.704;6.536;2023-07-13T03:00:48;15.20;99.90
58339;DHT22;68636;52.704;6.536;2023-07-13T03:03:16;15.10;99.90
58339;DHT22;68636;52.704;6.536;2023-07-13T03:05:43;15.10;99.90
58339;DHT22;68636;52.704;6.536;2023-07-13T03:08:16;15.10;99.90
58339;DHT22;68636;52.704;6.536;2023-07-13T03:10:41;15.10;99.90
58339;DHT22;68636;52.704;6.536;2023-07-13T03:13:07;15.10;99.90
58339;DHT22;68636;52.704;6.536;2023-07-13T03:15:33;15.10;99.90
58339;DHT22;68636;52.704;6.536;2023-07-13T03:17:59;15.00;99.90
58339;DHT22;68636;52.704;6.536;2023-07-13T03:20:25;15.10;99.90
58339;DHT22;68636;52.704;6.536;2023-07-13T03:22:50;15.10;99.90
58339;DHT22;68636;52.704;6.536;2023-07-13T03:25:16;15.10;99.90
58339;DHT22;68636;52.704;6.536;2023-07-13T03:27:42;15.10;99.90
58339;DHT22;68636;52.704;6.536;2023-07-13T03:30:08;15.10;99.90
58339;DHT22;68636;52.704;6.536;2023-07-13T03:32:34;15.10;99.90
58339;DHT22;68636;52.704;6.536;2023-07-13T03:35:00;15.10;99.90
58339;DHT22;68636;52.704;6.536;2023-07-13T03:37:26;15.10;99.90
58339;DHT22;68636;52.704;6.536;2023-07-13T03:39:53;15.10;99.90
58339;DHT22;68636;52.704;6.536;2023-07-13T03:42:18;15.10;99.90
58339;DHT22;68636;52.704;6.536;2023-07-13T03:44:44;15.10;99.90
58339;DHT22;68636;52.704;6.536;2023-07-13T03:47:16;15.00;99.90
58339;DHT22;68636;52.704;6.536;2023-07-13T03:49:41;15.00;99.90
58339;DHT22;68636;52.704;6.536;2023-07-13T03:52:07;15.10;99.90
58339;DHT22;68636;52.704;6.536;2023-07-13T03:54:33;15.10;99.90
58339;DHT22;68636;52.704;6.536;2023-07-13T03:56:59;15.10;99.90
58339;DHT22;68636;52.704;6.536;2023-07-13T03:59:25;15.10;99.90
58339;DHT22;68636;52.704;6.536;2023-07-13T04:01:50;15.10;99.90
58339;DHT22;68636;52.704;6.536;2023-07-13T04:04:16;15.20;99.90
58339;DHT22;68636;52.704;6.536;2023-07-13T04:06:42;15.20;99.90
58339;DHT22;68636;52.704;6.536;2023-07-13T04:09:08;15.10;99.90
58339;DHT22;68636;52.704;6.536;2023-07-13T04:11:34;15.20;99.90
58339;DHT22;68636;52.704;6.536;2023-07-13T04:14:02;15.10;99.90
58339;DHT22;68636;52.704;6.536;2023-07-13T04:16:28;15.10;99.90
58339;DHT22;68636;52.704;6.536;2023-07-13T04:18:54;15.10;99.90
58339;DHT22;68636;52.704;6.536;2023-07-13T04:21:22;15.00;99.90
58339;DHT22;68636;52.704;6.536;2023-07-13T04:23:48;15.00;99.90
58339;DHT22;68636;52.704;6.536;2023-07-13T04:26:14;14.90;99.90
58339;DHT22;68636;52.704;6.536;2023-07-13T04:28:40;14.90;99.90
58339;DHT22;68636;52.704;6.536;2023-07-13T04:31:07;14.90;99.90
58339;DHT22;68636;52.704;6.536;2023-07-13T04:33:32;14.90;99.90
58339;DHT22;68636;52.704;6.536;2023-07-13T04:35:59;14.90;99.90
58339;DHT22;68636;52.704;6.536;2023-07-13T04:38:27;15.00;99.90
58339;DHT22;68636;52.704;6.536;2023-07-13T04:40:55;15.00;99.90
58339;DHT22;68636;52.704;6.536;2023-07-13T04:43:22;15.10;99.90
58339;DHT22;68636;52.704;6.536;2023-07-13T04:45:47;15.10;99.90
58339;DHT22;68636;52.704;6.536;2023-07-13T04:48:13;15.10;99.90
58339;DHT22;68636;52.704;6.536;2023-07-13T04:50:39;15.20;99.90
58339;DHT22;68636;52.704;6.536;2023-07-13T04:53:05;15.20;99.90
58339;DHT22;68636;52.704;6.536;2023-07-13T04:55:31;15.20;99.90
58339;DHT22;68636;52.704;6.536;2023-07-13T04:57:58;15.30;99.90
58339;DHT22;68636;52.704;6.536;2023-07-13T05:00:28;15.30;99.90
58339;DHT22;68636;52.704;6.536;2023-07-13T05:02:58;15.30;99.90
58339;DHT22;68636;52.704;6.536;2023-07-13T05:05:26;15.40;99.90
58339;DHT22;68636;52.704;6.536;2023-07-13T05:07:52;15.40;99.90
58339;DHT22;68636;52.704;6.536;2023-07-13T05:10:18;15.50;99.90
58339;DHT22;68636;52.704;6.536;2023-07-13T05:12:44;15.50;99.90
58339;DHT22;68636;52.704;6.536;2023-07-13T05:15:10;15.60;99.90
58339;DHT22;68636;52.704;6.536;2023-07-13T05:17:36;15.60;99.90
58339;DHT22;68636;52.704;6.536;2023-07-13T05:20:05;15.70;99.90
58339;DHT22;68636;52.704;6.536;2023-07-13T05:22:31;15.70;99.90
58339;DHT22;68636;52.704;6.536;2023-07-13T05:24:57;15.70;99.90
58339;DHT22;68636;52.704;6.536;2023-07-13T05:27:22;15.80;99.90
58339;DHT22;68636;52.704;6.536;2023-07-13T05:29:49;15.80;99.90
58339;DHT22;68636;52.704;6.536;2023-07-13T05:32:15;15.80;99.90
58339;DHT22;68636;52.704;6.536;2023-07-13T05:34:41;15.90;99.90
58339;DHT22;68636;52.704;6.536;2023-07-13T05:37:07;15.90;99.90
58339;DHT22;68636;52.704;6.536;2023-07-13T05:39:33;16.00;99.90
58339;DHT22;68636;52.704;6.536;2023-07-13T05:41:59;16.00;99.90
58339;DHT22;68636;52.704;6.536;2023-07-13T05:44:25;16.10;99.90
58339;DHT22;68636;52.704;6.536;2023-07-13T05:46:50;16.10;99.90
58339;DHT22;68636;52.704;6.536;2023-07-13T05:49:16;16.10;99.90
58339;DHT22;68636;52.704;6.536;2023-07-13T05:51:42;16.20;99.90
58339;DHT22;68636;52.704;6.536;2023-07-13T05:54:07;16.20;99.90
58339;DHT22;68636;52.704;6.536;2023-07-13T05:56:33;16.30;99.90
58339;DHT22;68636;52.704;6.536;2023-07-13T05:58:59;16.40;99.90
58339;DHT22;68636;52.704;6.536;2023-07-13T06:01:24;16.40;99.90
58339;DHT22;68636;52.704;6.536;2023-07-13T06:03:50;16.50;99.90
58339;DHT22;68636;52.704;6.536;2023-07-13T06:06:16;16.50;99.90
58339;DHT22;68636;52.704;6.536;2023-07-13T06:08:42;16.50;99.90
58339;DHT22;68636;52.704;6.536;2023-07-13T06:13:40;16.60;99.90
58339;DHT22;68636;52.704;6.536;2023-07-13T06:16:06;16.70;99.90
58339;DHT22;68636;52.704;6.536;2023-07-13T06:18:36;16.70;99.90
58339;DHT22;68636;52.704;6.536;2023-07-13T06:21:14;16.80;99.90
58339;DHT22;68636;52.704;6.536;2023-07-13T06:23:40;16.90;99.90
58339;DHT22;68636;52.704;6.536;2023-07-13T06:26:06;17.00;99.90
58339;DHT22;68636;52.704;6.536;2023-07-13T06:28:32;17.00;99.90
58339;DHT22;68636;52.704;6.536;2023-07-13T06:30:59;17.10;99.90
58339;DHT22;68636;52.704;6.536;2023-07-13T06:33:25;17.30;99.90
58339;DHT22;68636;52.704;6.536;2023-07-13T06:35:51;17.50;99.90
58339;DHT22;68636;52.704;6.536;2023-07-13T06:38:17;17.70;99.90
58339;DHT22;68636;52.704;6.536;2023-07-13T06:40:43;17.90;99.90
58339;DHT22;68636;52.704;6.536;2023-07-13T06:43:09;18.10;99.90
58339;DHT22;68636;52.704;6.536;2023-07-13T06:45:41;18.20;99.90
58339;DHT22;68636;52.704;6.536;2023-07-13T06:48:07;18.30;99.90
58339;DHT22;68636;52.704;6.536;2023-07-13T06:50:34;18.50;99.90
58339;DHT22;68636;52.704;6.536;2023-07-13T06:52:59;18.60;99.90
58339;DHT22;68636;52.704;6.536;2023-07-13T06:55:26;18.60;99.90
58339;DHT22;68636;52.704;6.536;2023-07-13T06:57:51;18.70;99.90
58339;DHT22;68636;52.704;6.536;2023-07-13T07:00:17;18.80;99.90
58339;DHT22;68636;52.704;6.536;2023-07-13T07:02:43;18.90;99.90
58339;DHT22;68636;52.704;6.536;2023-07-13T07:05:09;19.00;99.90
58339;DHT22;68636;52.704;6.536;2023-07-13T07:07:35;18.90;99.90
58339;DHT22;68636;52.704;6.536;2023-07-13T07:10:01;18.90;99.90
58339;DHT22;68636;52.704;6.536;2023-07-13T07:12:26;18.90;99.90
58339;DHT22;68636;52.704;6.536;2023-07-13T07:14:52;18.80;99.90
58339;DHT22;68636;52.704;6.536;2023-07-13T07:17:18;18.80;99.90
58339;DHT22;68636;52.704;6.536;2023-07-13T07:19:44;18.80;99.90
58339;DHT22;68636;52.704;6.536;2023-07-13T07:22:09;18.80;99.90
58339;DHT22;68636;52.704;6.536;2023-07-13T07:24:35;18.80;99.90
58339;DHT22;68636;52.704;6.536;2023-07-13T07:27:01;18.90;99.90
58339;DHT22;68636;52.704;6.536;2023-07-13T07:29:27;18.90;99.90
58339;DHT22;68636;52.704;6.536;2023-07-13T07:31:53;18.90;99.90
58339;DHT22;68636;52.704;6.536;2023-07-13T07:34:19;19.00;99.90
58339;DHT22;68636;52.704;6.536;2023-07-13T07:36:45;19.00;99.90
58339;DHT22;68636;52.704;6.536;2023-07-13T07:39:11;19.10;99.90
58339;DHT22;68636;52.704;6.536;2023-07-13T07:41:37;19.20;99.90
58339;DHT22;68636;52.704;6.536;2023-07-13T07:44:03;19.20;99.90
58339;DHT22;68636;52.704;6.536;2023-07-13T07:46:29;19.30;99.90
58339;DHT22;68636;52.704;6.536;2023-07-13T07:48:56;19.40;99.90
58339;DHT22;68636;52.704;6.536;2023-07-13T07:51:22;19.50;99.90
58339;DHT22;68636;52.704;6.536;2023-07-13T07:53:48;19.50;99.90
58339;DHT22;68636;52.704;6.536;2023-07-13T07:56:14;19.60;99.90
58339;DHT22;68636;52.704;6.536;2023-07-13T07:58:42;19.70;99.90
58339;DHT22;68636;52.704;6.536;2023-07-13T08:01:08;19.70;99.90
58339;DHT22;68636;52.704;6.536;2023-07-13T08:03:34;19.80;99.90
58339;DHT22;68636;52.704;6.536;2023-07-13T08:06:01;19.90;99.90
58339;DHT22;68636;52.704;6.536;2023-07-13T08:08:27;20.00;99.90
58339;DHT22;68636;52.704;6.536;2023-07-13T08:10:53;20.10;99.90
58339;DHT22;68636;52.704;6.536;2023-07-13T08:13:19;20.40;99.90
58339;DHT22;68636;52.704;6.536;2023-07-13T08:15:46;20.50;99.90
58339;DHT22;68636;52.704;6.536;2023-07-13T08:18:12;20.80;99.90
58339;DHT22;68636;52.704;6.536;2023-07-13T08:20:40;21.00;99.90
58339;DHT22;68636;52.704;6.536;2023-07-13T08:23:07;21.10;99.90
58339;DHT22;68636;52.704;6.536;2023-07-13T08:25:35;21.20;99.90
58339;DHT22;68636;52.704;6.536;2023-07-13T08:28:01;21.00;99.90
58339;DHT22;68636;52.704;6.536;2023-07-13T08:30:27;20.80;99.90
58339;DHT22;68636;52.704;6.536;2023-07-13T08:32:54;20.70;99.90
58339;DHT22;68636;52.704;6.536;2023-07-13T08:35:19;20.60;99.90
58339;DHT22;68636;52.704;6.536;2023-07-13T08:37:45;20.50;99.90
58339;DHT22;68636;52.704;6.536;2023-07-13T08:40:12;20.40;99.90
58339;DHT22;68636;52.704;6.536;2023-07-13T08:42:53;20.30;99.90
58339;DHT22;68636;52.704;6.536;2023-07-13T08:48:21;20.10;99.90
58339;DHT22;68636;52.704;6.536;2023-07-13T08:53:40;19.90;99.90
58339;DHT22;68636;52.704;6.536;2023-07-13T08:56:17;19.70;99.90
58339;DHT22;68636;52.704;6.536;2023-07-13T08:58:45;19.70;99.90
58339;DHT22;68636;52.704;6.536;2023-07-13T09:01:24;19.50;99.90
58339;DHT22;68636;52.704;6.536;2023-07-13T09:04:24;19.40;99.90
58339;DHT22;68636;52.704;6.536;2023-07-13T09:12:11;17.50;99.90
58339;DHT22;68636;52.704;6.536;2023-07-13T09:14:45;16.80;99.90
58339;DHT22;68636;52.704;6.536;2023-07-13T09:17:20;16.10;99.90
58339;DHT22;68636;52.704;6.536;2023-07-13T09:19:53;15.50;99.90
58339;DHT22;68636;52.704;6.536;2023-07-13T09:22:24;15.20;99.90
58339;DHT22;68636;52.704;6.536;2023-07-13T09:25:02;14.80;99.90
58339;DHT22;68636;52.704;6.536;2023-07-13T09:27:36;14.50;99.90
58339;DHT22;68636;52.704;6.536;2023-07-13T09:32:47;14.30;99.90
58339;DHT22;68636;52.704;6.536;2023-07-13T09:35:20;14.40;99.90
58339;DHT22;68636;52.704;6.536;2023-07-13T09:37:46;14.50;99.90
58339;DHT22;68636;52.704;6.536;2023-07-13T09:40:40;14.50;99.90
58339;DHT22;68636;52.704;6.536;2023-07-13T09:43:13;14.60;99.90
58339;DHT22;68636;52.704;6.536;2023-07-13T09:45:39;14.60;99.90
58339;DHT22;68636;52.704;6.536;2023-07-13T09:48:10;14.70;99.90
58339;DHT22;68636;52.704;6.536;2023-07-13T09:50:37;14.80;99.90
58339;DHT22;68636;52.704;6.536;2023-07-13T09:53:02;14.80;99.90
58339;DHT22;68636;52.704;6.536;2023-07-13T09:55:37;15.00;99.90
58339;DHT22;68636;52.704;6.536;2023-07-13T09:58:13;15.20;99.90
58339;DHT22;68636;52.704;6.536;2023-07-13T10:00:40;15.40;99.90
58339;DHT22;68636;52.704;6.536;2023-07-13T10:03:17;15.50;99.90
58339;DHT22;68636;52.704;6.536;2023-07-13T10:05:45;15.60;99.90
58339;DHT22;68636;52.704;6.536;2023-07-13T10:08:25;15.70;99.90
58339;DHT22;68636;52.704;6.536;2023-07-13T10:11:10;16.00;99.90
58339;DHT22;68636;52.704;6.536;2023-07-13T10:13:42;16.50;99.90
58339;DHT22;68636;52.704;6.536;2023-07-13T10:16:08;16.90;99.90
58339;DHT22;68636;52.704;6.536;2023-07-13T10:18:49;17.20;99.90
58339;DHT22;68636;52.704;6.536;2023-07-13T10:21:21;17.40;99.90
58339;DHT22;68636;52.704;6.536;2023-07-13T10:23:51;17.60;99.90
58339;DHT22;68636;52.704;6.536;2023-07-13T10:26:27;17.70;99.90
58339;DHT22;68636;52.704;6.536;2023-07-13T10:28:57;17.90;99.90
58339;DHT22;68636;52.704;6.536;2023-07-13T10:31:25;18.00;99.90
58339;DHT22;68636;52.704;6.536;2023-07-13T10:33:50;18.10;99.90
58339;DHT22;68636;52.704;6.536;2023-07-13T10:36:40;18.30;99.90
58339;DHT22;68636;52.704;6.536;2023-07-13T10:39:23;18.60;99.90
58339;DHT22;68636;52.704;6.536;2023-07-13T10:41:54;18.90;99.90
58339;DHT22;68636;52.704;6.536;2023-07-13T10:44:30;19.10;99.90
58339;DHT22;68636;52.704;6.536;2023-07-13T10:47:08;19.10;99.90
58339;DHT22;68636;52.704;6.536;2023-07-13T10:49:37;19.00;99.90
58339;DHT22;68636;52.704;6.536;2023-07-13T10:52:04;18.90;99.90
58339;DHT22;68636;52.704;6.536;2023-07-13T10:54:31;18.80;99.90
58339;DHT22;68636;52.704;6.536;2023-07-13T10:57:07;18.70;99.90
58339;DHT22;68636;52.704;6.536;2023-07-13T10:59:37;18.60;99.90
58339;DHT22;68636;52.704;6.536;2023-07-13T11:04:46;17.90;99.90
58339;DHT22;68636;52.704;6.536;2023-07-13T11:07:24;17.30;99.90
58339;DHT22;68636;52.704;6.536;2023-07-13T11:09:58;16.80;99.90
58339;DHT22;68636;52.704;6.536;2023-07-13T11:22:52;16.80;99.90
58339;DHT22;68636;52.704;6.536;2023-07-13T11:25:25;17.20;99.90
58339;DHT22;68636;52.704;6.536;2023-07-13T11:36:19;18.80;99.90
58339;DHT22;68636;52.704;6.536;2023-07-13T11:39:04;18.90;99.90
58339;DHT22;68636;52.704;6.536;2023-07-13T11:41:35;19.00;99.90
58339;DHT22;68636;52.704;6.536;2023-07-13T11:44:16;19.20;99.90
58339;DHT22;68636;52.704;6.536;2023-07-13T11:46:47;19.50;99.90
58339;DHT22;68636;52.704;6.536;2023-07-13T11:49:16;19.70;99.90
58339;DHT22;68636;52.704;6.536;2023-07-13T11:51:43;19.90;99.90
58339;DHT22;68636;52.704;6.536;2023-07-13T11:54:26;20.10;99.90
58339;DHT22;68636;52.704;6.536;2023-07-13T11:56:53;20.30;99.90
58339;DHT22;68636;52.704;6.536;2023-07-13T11:59:19;20.40;99.90
58339;DHT22;68636;52.704;6.536;2023-07-13T12:01:51;20.50;99.90
58339;DHT22;68636;52.704;6.536;2023-07-13T12:04:29;20.60;99.90
58339;DHT22;68636;52.704;6.536;2023-07-13T12:06:58;20.70;99.90
58339;DHT22;68636;52.704;6.536;2023-07-13T12:09:28;20.80;99.90
58339;DHT22;68636;52.704;6.536;2023-07-13T12:11:57;21.00;99.90
58339;DHT22;68636;52.704;6.536;2023-07-13T12:14:25;21.10;99.90
58339;DHT22;68636;52.704;6.536;2023-07-13T12:16:53;21.20;99.90
58339;DHT22;68636;52.704;6.536;2023-07-13T12:19:20;21.20;99.90
58339;DHT22;68636;52.704;6.536;2023-07-13T12:21:47;21.20;99.90
58339;DHT22;68636;52.704;6.536;2023-07-13T12:24:15;21.20;99.90
58339;DHT22;68636;52.704;6.536;2023-07-13T12:26:41;21.30;99.90
58339;DHT22;68636;52.704;6.536;2023-07-13T12:29:08;21.60;99.90
58339;DHT22;68636;52.704;6.536;2023-07-13T12:31:41;21.80;99.90
58339;DHT22;68636;52.704;6.536;2023-07-13T12:34:13;22.00;99.90
58339;DHT22;68636;52.704;6.536;2023-07-13T12:36:49;22.20;99.90
58339;DHT22;68636;52.704;6.536;2023-07-13T12:39:21;22.20;99.90
58339;DHT22;68636;52.704;6.536;2023-07-13T12:41:49;22.40;99.90
58339;DHT22;68636;52.704;6.536;2023-07-13T12:44:19;22.50;99.90
58339;DHT22;68636;52.704;6.536;2023-07-13T12:46:53;22.40;99.90
58339;DHT22;68636;52.704;6.536;2023-07-13T12:49:24;22.30;99.90
58339;DHT22;68636;52.704;6.536;2023-07-13T12:51:55;22.30;99.90
58339;DHT22;68636;52.704;6.536;2023-07-13T12:54:21;22.50;99.90
58339;DHT22;68636;52.704;6.536;2023-07-13T12:56:50;22.40;99.90
58339;DHT22;68636;52.704;6.536;2023-07-13T12:59:21;22.50;99.90
58339;DHT22;68636;52.704;6.536;2023-07-13T13:01:48;22.60;99.90
58339;DHT22;68636;52.704;6.536;2023-07-13T13:04:15;22.70;99.90
58339;DHT22;68636;52.704;6.536;2023-07-13T13:06:41;22.70;99.90
58339;DHT22;68636;52.704;6.536;2023-07-13T13:09:17;22.60;99.90
58339;DHT22;68636;52.704;6.536;2023-07-13T13:11:44;22.50;99.90
58339;DHT22;68636;52.704;6.536;2023-07-13T13:14:09;22.50;99.90
58339;DHT22;68636;52.704;6.536;2023-07-13T13:16:48;22.40;99.90
58339;DHT22;68636;52.704;6.536;2023-07-13T13:19:19;22.30;99.90
58339;DHT22;68636;52.704;6.536;2023-07-13T13:21:47;22.50;99.90
58339;DHT22;68636;52.704;6.536;2023-07-13T13:24:15;22.60;99.90
58339;DHT22;68636;52.704;6.536;2023-07-13T13:26:43;22.30;99.90
58339;DHT22;68636;52.704;6.536;2023-07-13T13:29:12;22.30;99.90
58339;DHT22;68636;52.704;6.536;2023-07-13T13:31:39;22.20;99.90
58339;DHT22;68636;52.704;6.536;2023-07-13T13:34:09;22.20;99.90
58339;DHT22;68636;52.704;6.536;2023-07-13T13:36:35;22.00;99.90
58339;DHT22;68636;52.704;6.536;2023-07-13T13:39:00;22.00;99.90
58339;DHT22;68636;52.704;6.536;2023-07-13T13:41:27;21.90;99.90
58339;DHT22;68636;52.704;6.536;2023-07-13T13:43:53;21.90;99.90
58339;DHT22;68636;52.704;6.536;2023-07-13T13:46:21;22.00;99.90
58339;DHT22;68636;52.704;6.536;2023-07-13T13:48:48;22.00;99.90
58339;DHT22;68636;52.704;6.536;2023-07-13T13:51:19;21.80;99.90
58339;DHT22;68636;52.704;6.536;2023-07-13T13:53:47;21.70;99.90
58339;DHT22;68636;52.704;6.536;2023-07-13T13:56:14;21.60;99.90
58339;DHT22;68636;52.704;6.536;2023-07-13T13:58:40;21.80;99.90
58339;DHT22;68636;52.704;6.536;2023-07-13T14:01:13;22.10;99.90
58339;DHT22;68636;52.704;6.536;2023-07-13T14:03:39;22.30;99.90
58339;DHT22;68636;52.704;6.536;2023-07-13T14:06:05;22.30;99.90
58339;DHT22;68636;52.704;6.536;2023-07-13T14:08:31;22.10;99.90
58339;DHT22;68636;52.704;6.536;2023-07-13T14:10:57;21.90;99.90
58339;DHT22;68636;52.704;6.536;2023-07-13T14:13:37;21.90;99.90
58339;DHT22;68636;52.704;6.536;2023-07-13T14:16:29;21.90;99.90
58339;DHT22;68636;52.704;6.536;2023-07-13T14:18:58;22.00;99.90
58339;DHT22;68636;52.704;6.536;2023-07-13T14:21:26;22.10;99.90
58339;DHT22;68636;52.704;6.536;2023-07-13T14:23:52;21.90;99.90
58339;DHT22;68636;52.704;6.536;2023-07-13T14:26:22;21.90;99.90
58339;DHT22;68636;52.704;6.536;2023-07-13T14:28:53;21.80;99.90
58339;DHT22;68636;52.704;6.536;2023-07-13T14:31:20;21.70;99.90
58339;DHT22;68636;52.704;6.536;2023-07-13T14:33:46;21.60;99.90
58339;DHT22;68636;52.704;6.536;2023-07-13T14:36:35;21.70;99.90
58339;DHT22;68636;52.704;6.536;2023-07-13T14:39:14;21.70;99.90
58339;DHT22;68636;52.704;6.536;2023-07-13T14:41:40;21.80;99.90
58339;DHT22;68636;52.704;6.536;2023-07-13T14:44:14;21.90;99.90
58339;DHT22;68636;52.704;6.536;2023-07-13T14:46:41;22.00;99.90
58339;DHT22;68636;52.704;6.536;2023-07-13T14:49:31;21.80;99.90
58339;DHT22;68636;52.704;6.536;2023-07-13T14:51:59;21.80;99.90
58339;DHT22;68636;52.704;6.536;2023-07-13T14:54:26;21.90;99.90
58339;DHT22;68636;52.704;6.536;2023-07-13T14:56:52;22.00;99.90
58339;DHT22;68636;52.704;6.536;2023-07-13T14:59:18;22.20;99.90
58339;DHT22;68636;52.704;6.536;2023-07-13T15:01:50;22.40;99.90
58339;DHT22;68636;52.704;6.536;2023-07-13T15:04:16;22.40;99.90
58339;DHT22;68636;52.704;6.536;2023-07-13T15:06:58;22.50;99.90
58339;DHT22;68636;52.704;6.536;2023-07-13T15:09:25;22.70;99.90
58339;DHT22;68636;52.704;6.536;2023-07-13T15:11:58;22.80;99.90
58339;DHT22;68636;52.704;6.536;2023-07-13T15:14:25;22.80;99.90
58339;DHT22;68636;52.704;6.536;2023-07-13T15:16:54;22.70;99.90
58339;DHT22;68636;52.704;6.536;2023-07-13T15:19:21;22.80;99.90
58339;DHT22;68636;52.704;6.536;2023-07-13T15:21:49;22.70;99.90
58339;DHT22;68636;52.704;6.536;2023-07-13T15:24:15;22.80;99.90
58339;DHT22;68636;52.704;6.536;2023-07-13T15:26:42;22.90;99.90
58339;DHT22;68636;52.704;6.536;2023-07-13T15:29:14;22.90;99.90
58339;DHT22;68636;52.704;6.536;2023-07-13T15:31:40;23.10;99.90
58339;DHT22;68636;52.704;6.536;2023-07-13T15:34:16;23.10;99.90
58339;DHT22;68636;52.704;6.536;2023-07-13T15:36:44;23.10;99.90
58339;DHT22;68636;52.704;6.536;2023-07-13T15:39:15;23.00;99.90
58339;DHT22;68636;52.704;6.536;2023-07-13T15:41:45;22.70;99.90
58339;DHT22;68636;52.704;6.536;2023-07-13T15:44:28;22.60;99.90
58339;DHT22;68636;52.704;6.536;2023-07-13T15:46:54;22.40;99.90
58339;DHT22;68636;52.704;6.536;2023-07-13T15:49:20;22.50;99.90
58339;DHT22;68636;52.704;6.536;2023-07-13T15:51:47;22.60;99.90
58339;DHT22;68636;52.704;6.536;2023-07-13T15:54:15;22.60;99.90
58339;DHT22;68636;52.704;6.536;2023-07-13T15:56:41;22.80;99.90
58339;DHT22;68636;52.704;6.536;2023-07-13T15:59:10;22.90;99.90
58339;DHT22;68636;52.704;6.536;2023-07-13T16:01:38;23.00;99.90
58339;DHT22;68636;52.704;6.536;2023-07-13T16:04:04;22.90;99.90
58339;DHT22;68636;52.704;6.536;2023-07-13T16:06:36;22.90;99.90
58339;DHT22;68636;52.704;6.536;2023-07-13T16:09:03;22.70;99.90
58339;DHT22;68636;52.704;6.536;2023-07-13T16:11:38;22.60;99.90
58339;DHT22;68636;52.704;6.536;2023-07-13T16:14:04;22.40;99.90
58339;DHT22;68636;52.704;6.536;2023-07-13T16:16:32;22.40;99.90
58339;DHT22;68636;52.704;6.536;2023-07-13T16:19:03;22.50;99.90